Time;durP1;ratioP1;P1;durP2;ratioP2;P2;SDS_P1;SDS_P2;PMS_P1;PMS_P2;Temp;Humidity;BMP_temperature;BMP_pressure;BME280_temperature;BME280_humidity;BME280_pressure;Samples;Min_cycle;Max_cycle;Signal;HPM_P1;HPM_P2
2021/12/26 00:02:06;;;;;;;;;;;-5.40;99.90;;;;;;5002489;28;19921;-82
2021/12/26 00:04:33;;;;;;;;;;;-5.40;99.90;;;;;;5016883;28;19925;-82
2021/12/26 00:06:58;;;;;;;;;;;-5.50;99.90;;;;;;5017406;28;19928;-82
2021/12/26 00:09:24;;;;;;;;;;;-5.50;99.90;;;;;;5016972;28;19922;-82
2021/12/26 00:11:49;;;;;;;;;;;-5.50;99.90;;;;;;5016421;28;19922;-82
2021/12/26 00:14:15;;;;;;;;;;;-5.50;99.90;;;;;;5017170;28;20011;-82
2021/12/26 00:16:42;;;;;;;;;;;-5.50;99.90;;;;;;5016799;28;19921;-82
2021/12/26 00:19:07;;;;;;;;;;;-5.40;99.90;;;;;;5033155;28;20389;-82
2021/12/26 00:21:33;;;;;;;;;;;-5.40;99.90;;;;;;5017241;28;20000;-82
2021/12/26 00:23:59;;;;;;;;;;;-5.40;99.90;;;;;;5016928;28;20029;-82
2021/12/26 00:26:25;;;;;;;;;;;-5.40;99.90;;;;;;5033505;28;19921;-82
2021/12/26 00:28:51;;;;;;;;;;;-5.40;99.90;;;;;;5017384;28;19944;-82
2021/12/26 00:31:17;;;;;;;;;;;-5.40;99.90;;;;;;5016908;28;20072;-82
2021/12/26 00:33:42;;;;;;;;;;;-5.40;99.90;;;;;;5016034;28;19976;-82
2021/12/26 00:36:08;;;;;;;;;;;-5.30;99.90;;;;;;5000578;28;19929;-82
2021/12/26 00:38:34;;;;;;;;;;;-5.30;99.90;;;;;;5016418;28;19921;-82
2021/12/26 00:40:59;;;;;;;;;;;-5.30;99.90;;;;;;5016200;28;19925;-82
2021/12/26 00:43:26;;;;;;;;;;;-5.30;99.90;;;;;;5033095;28;20056;-82
2021/12/26 00:45:52;;;;;;;;;;;-5.20;99.90;;;;;;5032767;28;19932;-82
2021/12/26 00:48:17;;;;;;;;;;;-5.20;99.90;;;;;;5032950;28;19921;-82
2021/12/26 00:50:43;;;;;;;;;;;-5.20;99.90;;;;;;5016100;28;19964;-82
2021/12/26 00:53:08;;;;;;;;;;;-5.30;99.90;;;;;;5016195;28;19944;-82
2021/12/26 00:55:34;;;;;;;;;;;-5.30;99.90;;;;;;5016110;28;19921;-82
2021/12/26 00:58:00;;;;;;;;;;;-5.40;99.90;;;;;;5015480;28;19928;-82
2021/12/26 01:00:30;;;;;;;;;;;-5.40;99.90;;;;;;5015228;28;19948;-82
2021/12/26 01:02:57;;;;;;;;;;;-5.40;99.90;;;;;;5031732;28;19943;-82
2021/12/26 01:05:23;;;;;;;;;;;-5.40;99.90;;;;;;5015428;28;19925;-82
2021/12/26 01:07:58;;;;;;;;;;;-5.40;99.90;;;;;;5015474;28;20381;-82
2021/12/26 01:10:32;;;;;;;;;;;-5.40;99.90;;;;;;5014872;28;19929;-82
2021/12/26 01:12:57;;;;;;;;;;;-5.40;99.90;;;;;;5015286;28;19972;-82
2021/12/26 01:15:23;;;;;;;;;;;-5.30;99.20;;;;;;5015322;28;19976;-82
2021/12/26 01:17:55;;;;;;;;;;;-5.40;99.90;;;;;;5014441;28;19925;-82
2021/12/26 01:20:38;;;;;;;;;;;-5.40;99.70;;;;;;5014694;28;19925;-82
2021/12/26 01:23:03;;;;;;;;;;;-5.40;99.90;;;;;;5015208;28;19967;-82
2021/12/26 01:25:29;;;;;;;;;;;-5.40;98.40;;;;;;5015196;28;19929;-82
2021/12/26 01:27:54;;;;;;;;;;;-5.30;98.30;;;;;;5031096;28;19975;-82
2021/12/26 01:30:20;;;;;;;;;;;-5.40;98.80;;;;;;5015029;28;19928;-82
2021/12/26 01:32:45;;;;;;;;;;;-5.40;99.60;;;;;;5015133;28;19925;-82
2021/12/26 01:35:11;;;;;;;;;;;-5.40;99.00;;;;;;5031864;28;20326;-82
2021/12/26 01:37:36;;;;;;;;;;;-5.50;99.10;;;;;;5015153;28;19928;-82
2021/12/26 01:40:03;;;;;;;;;;;-5.40;97.50;;;;;;5014980;28;20389;-82
2021/12/26 01:42:28;;;;;;;;;;;-5.40;97.50;;;;;;5031318;28;19928;-82
2021/12/26 01:44:54;;;;;;;;;;;-5.40;97.30;;;;;;5014492;28;19921;-82
2021/12/26 01:47:19;;;;;;;;;;;-5.40;96.60;;;;;;5014782;28;19928;-82
2021/12/26 01:49:45;;;;;;;;;;;-5.40;97.80;;;;;;5014816;28;20039;-82
2021/12/26 01:52:11;;;;;;;;;;;-5.40;95.60;;;;;;5014642;28;19921;-82
2021/12/26 01:54:43;;;;;;;;;;;-5.40;96.50;;;;;;5014218;28;20343;-82
2021/12/26 01:57:10;;;;;;;;;;;-5.40;94.20;;;;;;4936409;28;1696790;-82
2021/12/26 01:59:36;;;;;;;;;;;-5.40;94.80;;;;;;5012101;28;20385;-82
2021/12/26 02:02:02;;;;;;;;;;;-5.40;95.20;;;;;;5012350;28;19932;-83
2021/12/26 02:04:28;;;;;;;;;;;-5.30;94.20;;;;;;5011963;28;20008;-82
2021/12/26 02:06:55;;;;;;;;;;;-5.30;93.40;;;;;;5023217;28;19967;-82
2021/12/26 02:09:20;;;;;;;;;;;-5.30;93.80;;;;;;5014797;28;19978;-82
2021/12/26 02:11:46;;;;;;;;;;;-5.30;94.70;;;;;;5015764;28;19925;-82
2021/12/26 02:14:11;;;;;;;;;;;-5.30;94.80;;;;;;5015530;28;19936;-82
2021/12/26 02:16:37;;;;;;;;;;;-5.40;94.90;;;;;;5015674;28;19921;-82
2021/12/26 02:19:02;;;;;;;;;;;-5.40;95.20;;;;;;5015162;28;20401;-82
2021/12/26 02:29:40;;;;;;;;;;;-5.50;95.40;;;;;;5035718;28;19979;-82
2021/12/26 02:32:06;;;;;;;;;;;-5.50;96.30;;;;;;5019494;28;20340;-82
2021/12/26 02:34:32;;;;;;;;;;;-5.50;95.80;;;;;;5018663;28;19925;-82
2021/12/26 02:36:57;;;;;;;;;;;-5.50;95.30;;;;;;5019009;28;20293;-82
2021/12/26 02:39:23;;;;;;;;;;;-5.50;95.90;;;;;;5019003;28;19929;-82
2021/12/26 02:41:48;;;;;;;;;;;-5.50;95.10;;;;;;5036040;28;19921;-82
2021/12/26 02:44:14;;;;;;;;;;;-5.50;95.30;;;;;;5034999;28;19933;-82
2021/12/26 02:46:40;;;;;;;;;;;-5.50;95.70;;;;;;5018919;28;19921;-82
2021/12/26 02:49:06;;;;;;;;;;;-5.50;94.30;;;;;;5018044;28;19921;-82
2021/12/26 02:51:32;;;;;;;;;;;-5.50;95.20;;;;;;5019175;28;20012;-82
2021/12/26 02:53:57;;;;;;;;;;;-5.50;94.00;;;;;;5018453;28;20348;-82
2021/12/26 02:56:23;;;;;;;;;;;-5.50;94.80;;;;;;5018748;28;19921;-82
2021/12/26 02:58:48;;;;;;;;;;;-5.50;95.20;;;;;;5019030;28;19924;-82
2021/12/26 03:01:19;;;;;;;;;;;-5.50;94.20;;;;;;5018239;28;19928;-82
2021/12/26 03:03:44;;;;;;;;;;;-5.50;95.00;;;;;;5018971;28;19928;-82
2021/12/26 03:06:18;;;;;;;;;;;-5.50;93.90;;;;;;5035294;28;19921;-82
2021/12/26 03:08:46;;;;;;;;;;;-5.40;92.00;;;;;;5019050;28;19921;-82
2021/12/26 03:11:11;;;;;;;;;;;-5.40;92.60;;;;;;5019149;28;19936;-82
2021/12/26 03:13:37;;;;;;;;;;;-5.40;92.40;;;;;;5018452;28;19921;-82
2021/12/26 03:16:03;;;;;;;;;;;-5.40;91.70;;;;;;5018444;28;20011;-82
2021/12/26 03:18:28;;;;;;;;;;;-5.40;92.90;;;;;;5018325;28;19921;-82
2021/12/26 03:20:53;;;;;;;;;;;-5.40;93.80;;;;;;5018562;28;20018;-82
2021/12/26 03:23:21;;;;;;;;;;;-5.40;92.30;;;;;;5018163;28;19921;-82
2021/12/26 03:25:47;;;;;;;;;;;-5.50;93.40;;;;;;5034977;28;19968;-82
2021/12/26 03:28:13;;;;;;;;;;;-5.50;92.50;;;;;;5018491;28;19921;-82
2021/12/26 03:30:39;;;;;;;;;;;-5.50;93.30;;;;;;5017937;28;19975;-82
2021/12/26 03:33:06;;;;;;;;;;;-5.50;94.30;;;;;;5018543;28;20373;-82
2021/12/26 03:35:32;;;;;;;;;;;-5.50;93.80;;;;;;5018369;28;20432;-82
2021/12/26 03:37:58;;;;;;;;;;;-5.50;93.80;;;;;;5018487;28;19960;-82
2021/12/26 03:40:24;;;;;;;;;;;-5.50;93.90;;;;;;5018139;28;20324;-82
2021/12/26 03:42:51;;;;;;;;;;;-5.50;93.60;;;;;;5018294;28;20210;-82
2021/12/26 03:45:17;;;;;;;;;;;-5.50;91.90;;;;;;5018311;28;19921;-82
2021/12/26 03:47:45;;;;;;;;;;;-5.50;92.80;;;;;;5018454;28;19921;-82
2021/12/26 03:50:11;;;;;;;;;;;-5.50;93.00;;;;;;5018414;28;19921;-82
2021/12/26 03:52:36;;;;;;;;;;;-5.50;92.50;;;;;;5017904;28;19928;-82
2021/12/26 03:55:02;;;;;;;;;;;-5.50;94.40;;;;;;5034512;28;20003;-82
2021/12/26 03:57:27;;;;;;;;;;;-5.50;94.40;;;;;;5033737;28;20293;-82
2021/12/26 03:59:53;;;;;;;;;;;-5.60;94.50;;;;;;5017792;28;19925;-82
2021/12/26 04:02:18;;;;;;;;;;;-5.60;94.40;;;;;;5034580;28;20016;-82
2021/12/26 04:04:44;;;;;;;;;;;-5.50;92.30;;;;;;5018264;28;19925;-82
2021/12/26 04:07:10;;;;;;;;;;;-5.50;92.50;;;;;;5017427;28;20290;-82
2021/12/26 04:09:36;;;;;;;;;;;-5.50;93.20;;;;;;5018299;28;19928;-82
2021/12/26 04:12:01;;;;;;;;;;;-5.50;93.90;;;;;;5017619;28;19925;-81
2021/12/26 04:14:27;;;;;;;;;;;-5.50;93.90;;;;;;5017371;28;19928;-82
2021/12/26 04:16:52;;;;;;;;;;;-5.50;94.00;;;;;;5017828;28;19921;-82
2021/12/26 04:19:18;;;;;;;;;;;-5.60;95.30;;;;;;5017766;28;19972;-82
2021/12/26 04:21:44;;;;;;;;;;;-5.50;93.50;;;;;;5017600;28;19959;-82
2021/12/26 04:24:09;;;;;;;;;;;-5.60;94.00;;;;;;5034419;28;19921;-82
2021/12/26 04:26:35;;;;;;;;;;;-5.60;94.10;;;;;;5033641;28;19970;-82
2021/12/26 04:29:00;;;;;;;;;;;-5.60;93.30;;;;;;5017156;28;20377;-83
2021/12/26 04:31:26;;;;;;;;;;;-5.50;93.70;;;;;;5017348;28;19921;-82
2021/12/26 04:33:51;;;;;;;;;;;-5.50;93.00;;;;;;5017283;28;19921;-82
2021/12/26 04:36:17;;;;;;;;;;;-5.60;93.20;;;;;;5017305;28;19921;-82
2021/12/26 04:38:43;;;;;;;;;;;-5.50;93.20;;;;;;5033154;28;19967;-82
2021/12/26 04:41:10;;;;;;;;;;;-5.60;94.50;;;;;;5017445;28;19972;-82
2021/12/26 04:43:36;;;;;;;;;;;-5.60;95.00;;;;;;5016272;28;19921;-82
2021/12/26 04:46:05;;;;;;;;;;;-5.60;94.90;;;;;;5033419;28;20011;-82
2021/12/26 04:48:31;;;;;;;;;;;-5.60;93.70;;;;;;5017382;28;19925;-82
2021/12/26 04:50:57;;;;;;;;;;;-5.60;94.00;;;;;;5017367;28;19927;-82
2021/12/26 04:53:22;;;;;;;;;;;-5.60;94.50;;;;;;5016579;28;20322;-82
2021/12/26 04:55:48;;;;;;;;;;;-5.60;93.70;;;;;;5017366;28;19972;-82
2021/12/26 04:58:13;;;;;;;;;;;-5.70;95.50;;;;;;5016699;28;19921;-82
2021/12/26 05:00:38;;;;;;;;;;;-5.60;94.90;;;;;;5016635;28;20016;-82
2021/12/26 05:03:06;;;;;;;;;;;-5.70;95.60;;;;;;5016701;28;19921;-82
2021/12/26 05:05:32;;;;;;;;;;;-5.70;95.00;;;;;;5033621;28;20004;-82
2021/12/26 05:07:58;;;;;;;;;;;-5.70;95.50;;;;;;5033456;28;19964;-82
2021/12/26 05:10:28;;;;;;;;;;;-5.60;94.90;;;;;;5016528;28;20295;-82
2021/12/26 05:12:54;;;;;;;;;;;-5.70;94.70;;;;;;5016870;28;20008;-82
2021/12/26 05:15:21;;;;;;;;;;;-5.60;94.70;;;;;;5016562;28;19921;-82
2021/12/26 05:17:47;;;;;;;;;;;-5.60;95.20;;;;;;5016823;28;19925;-82
2021/12/26 05:20:12;;;;;;;;;;;-5.60;95.20;;;;;;5016585;28;19931;-82
2021/12/26 05:22:38;;;;;;;;;;;-5.60;95.30;;;;;;5016124;28;19924;-82
2021/12/26 05:25:06;;;;;;;;;;;-5.70;95.80;;;;;;5016934;28;19964;-82
2021/12/26 05:27:32;;;;;;;;;;;-5.60;95.60;;;;;;5016578;28;19990;-82
2021/12/26 05:29:57;;;;;;;;;;;-5.70;95.80;;;;;;5016301;28;19921;-83
2021/12/26 05:32:23;;;;;;;;;;;-5.70;95.80;;;;;;5016124;28;19936;-82
2021/12/26 05:34:48;;;;;;;;;;;-5.70;95.90;;;;;;5016041;28;19970;-82
2021/12/26 05:37:14;;;;;;;;;;;-5.70;95.80;;;;;;5016624;28;20380;-82
2021/12/26 05:39:39;;;;;;;;;;;-5.70;95.40;;;;;;5033070;28;19929;-82
2021/12/26 05:42:05;;;;;;;;;;;-5.60;95.40;;;;;;5016821;28;19921;-82
2021/12/26 05:44:31;;;;;;;;;;;-5.60;94.30;;;;;;5032589;28;19921;-82
2021/12/26 05:46:56;;;;;;;;;;;-5.60;94.10;;;;;;5016404;28;19944;-82
2021/12/26 05:49:22;;;;;;;;;;;-5.60;94.80;;;;;;5033007;28;19984;-82
2021/12/26 05:51:47;;;;;;;;;;;-5.60;93.80;;;;;;5016509;28;19928;-82
2021/12/26 05:54:12;;;;;;;;;;;-5.60;93.80;;;;;;5015847;28;20385;-82
2021/12/26 05:56:38;;;;;;;;;;;-5.60;93.50;;;;;;5015915;28;19932;-83
2021/12/26 05:59:04;;;;;;;;;;;-5.60;94.00;;;;;;5014917;28;20019;-84
2021/12/26 06:01:29;;;;;;;;;;;-5.60;94.10;;;;;;5015127;28;20016;-84
2021/12/26 06:03:54;;;;;;;;;;;-5.50;93.60;;;;;;5014415;28;19925;-83
2021/12/26 06:06:20;;;;;;;;;;;-5.50;93.80;;;;;;5014757;28;19921;-84
2021/12/26 06:08:45;;;;;;;;;;;-5.50;92.60;;;;;;5014595;28;19921;-83
2021/12/26 06:11:11;;;;;;;;;;;-5.50;93.70;;;;;;5015212;28;19931;-84
2021/12/26 06:13:36;;;;;;;;;;;-5.50;94.20;;;;;;5014383;28;19922;-83
2021/12/26 06:16:02;;;;;;;;;;;-5.50;92.50;;;;;;5014923;28;19921;-83
2021/12/26 06:18:28;;;;;;;;;;;-5.50;92.00;;;;;;5015018;28;20332;-84
2021/12/26 06:20:53;;;;;;;;;;;-5.40;91.90;;;;;;5031082;28;19925;-84
2021/12/26 06:23:19;;;;;;;;;;;-5.40;92.10;;;;;;5014334;28;19921;-84
2021/12/26 06:25:44;;;;;;;;;;;-5.40;91.60;;;;;;5014761;28;19925;-84
2021/12/26 06:28:10;;;;;;;;;;;-5.40;91.90;;;;;;5014551;28;19928;-83
2021/12/26 06:30:36;;;;;;;;;;;-5.40;91.60;;;;;;5014206;28;19972;-84
2021/12/26 06:33:01;;;;;;;;;;;-5.50;92.70;;;;;;5014081;28;19925;-83
2021/12/26 06:35:27;;;;;;;;;;;-5.50;93.00;;;;;;5031594;28;19929;-83
2021/12/26 06:37:52;;;;;;;;;;;-5.40;91.10;;;;;;5014880;28;19921;-83
2021/12/26 06:40:18;;;;;;;;;;;-5.40;91.60;;;;;;5014595;28;19983;-84
2021/12/26 06:42:45;;;;;;;;;;;-5.40;91.80;;;;;;5030753;28;19960;-83
2021/12/26 06:45:14;;;;;;;;;;;-5.40;92.50;;;;;;5014838;28;20324;-83
2021/12/26 06:47:40;;;;;;;;;;;-5.50;92.90;;;;;;5014528;28;20289;-83
2021/12/26 06:50:06;;;;;;;;;;;-5.50;93.60;;;;;;5014545;28;19975;-83
2021/12/26 06:52:31;;;;;;;;;;;-5.50;93.30;;;;;;5014912;28;19929;-84
2021/12/26 06:54:56;;;;;;;;;;;-5.50;93.60;;;;;;5015030;28;19944;-83
2021/12/26 06:57:22;;;;;;;;;;;-5.50;93.40;;;;;;5014440;28;19971;-83
2021/12/26 06:59:47;;;;;;;;;;;-5.50;91.80;;;;;;5014637;28;20333;-83
2021/12/26 07:02:15;;;;;;;;;;;-5.40;91.90;;;;;;5030908;28;19921;-84
2021/12/26 07:04:41;;;;;;;;;;;-5.50;92.00;;;;;;5014026;28;20419;-83
2021/12/26 07:07:06;;;;;;;;;;;-5.50;92.10;;;;;;5015751;28;19921;-83
2021/12/26 07:09:32;;;;;;;;;;;-5.40;91.30;;;;;;5034832;28;19921;-84
2021/12/26 07:11:57;;;;;;;;;;;-5.50;93.10;;;;;;5018552;28;19928;-83
2021/12/26 07:14:23;;;;;;;;;;;-5.50;94.30;;;;;;5017770;28;19964;-83
2021/12/26 07:16:48;;;;;;;;;;;-5.50;93.20;;;;;;5018121;28;19932;-84
2021/12/26 07:19:14;;;;;;;;;;;-5.50;95.00;;;;;;5018074;28;20026;-84
2021/12/26 07:21:40;;;;;;;;;;;-5.50;94.50;;;;;;5017905;28;20373;-84
2021/12/26 07:24:06;;;;;;;;;;;-5.50;93.80;;;;;;5033966;28;19929;-83
2021/12/26 07:26:32;;;;;;;;;;;-5.50;93.30;;;;;;5017533;28;19925;-83
2021/12/26 07:28:57;;;;;;;;;;;-5.50;93.90;;;;;;5034160;28;19922;-84
2021/12/26 07:31:23;;;;;;;;;;;-5.50;94.90;;;;;;5017851;28;19967;-83
2021/12/26 07:33:48;;;;;;;;;;;-5.50;94.30;;;;;;5017567;28;20380;-83
2021/12/26 07:36:14;;;;;;;;;;;-5.50;94.80;;;;;;5017917;28;19975;-84
2021/12/26 07:38:39;;;;;;;;;;;-5.50;94.60;;;;;;5018033;28;19921;-83
2021/12/26 07:41:05;;;;;;;;;;;-5.50;94.50;;;;;;5034083;28;20297;-83
2021/12/26 07:43:30;;;;;;;;;;;-5.60;96.00;;;;;;5016963;28;20012;-84
2021/12/26 07:45:56;;;;;;;;;;;-5.50;94.80;;;;;;5017865;28;20331;-84
2021/12/26 07:48:21;;;;;;;;;;;-5.50;95.60;;;;;;5034353;28;20369;-83
2021/12/26 07:50:47;;;;;;;;;;;-5.50;95.40;;;;;;5033046;28;19921;-84
2021/12/26 07:53:12;;;;;;;;;;;-5.50;95.30;;;;;;5017050;28;20020;-83
2021/12/26 07:55:39;;;;;;;;;;;-5.50;96.70;;;;;;5034769;28;19944;-84
2021/12/26 07:58:04;;;;;;;;;;;-5.50;96.90;;;;;;5018504;28;20332;-82
2021/12/26 08:00:30;;;;;;;;;;;-5.50;96.90;;;;;;5016131;28;19988;-81
2021/12/26 08:02:56;;;;;;;;;;;-5.50;96.90;;;;;;5029004;28;19921;-79
2021/12/26 08:05:22;;;;;;;;;;;-5.50;97.20;;;;;;5017930;28;19968;-80
2021/12/26 08:07:47;;;;;;;;;;;-5.40;96.50;;;;;;5017756;28;19979;-81
2021/12/26 08:10:13;;;;;;;;;;;-5.40;97.30;;;;;;5017093;28;19925;-80
2021/12/26 08:12:38;;;;;;;;;;;-5.50;98.10;;;;;;5017615;28;19949;-83
2021/12/26 08:15:04;;;;;;;;;;;-5.40;98.10;;;;;;5017647;28;19967;-79
2021/12/26 08:17:30;;;;;;;;;;;-5.40;98.70;;;;;;5017859;28;20302;-79
2021/12/26 08:19:56;;;;;;;;;;;-5.40;98.20;;;;;;5015945;28;19929;-79
2021/12/26 08:22:21;;;;;;;;;;;-5.40;98.20;;;;;;5017179;28;19940;-79
2021/12/26 08:24:46;;;;;;;;;;;-5.40;98.00;;;;;;5033964;28;19936;-79
2021/12/26 08:27:12;;;;;;;;;;;-5.40;97.80;;;;;;5016721;28;19925;-79
2021/12/26 08:29:37;;;;;;;;;;;-5.40;97.30;;;;;;5018218;28;19921;-79
2021/12/26 08:32:03;;;;;;;;;;;-5.40;99.40;;;;;;5017975;28;20293;-79
2021/12/26 08:34:29;;;;;;;;;;;-5.40;97.80;;;;;;5034388;28;20258;-79
2021/12/26 08:37:00;;;;;;;;;;;-5.40;99.20;;;;;;5016485;28;19921;-80
2021/12/26 08:39:30;;;;;;;;;;;-5.40;98.80;;;;;;5031439;28;19975;-80
2021/12/26 08:41:56;;;;;;;;;;;-5.40;99.80;;;;;;5017790;28;19921;-80
2021/12/26 08:44:22;;;;;;;;;;;-5.30;98.70;;;;;;5017946;28;19932;-79
2021/12/26 08:46:47;;;;;;;;;;;-5.30;98.80;;;;;;5034190;28;19927;-79
2021/12/26 08:49:13;;;;;;;;;;;-5.20;98.50;;;;;;5017651;28;19987;-79
2021/12/26 08:51:39;;;;;;;;;;;-5.20;98.80;;;;;;5018368;28;20289;-79
2021/12/26 08:54:05;;;;;;;;;;;-5.20;98.90;;;;;;5017444;28;20309;-79
2021/12/26 08:56:30;;;;;;;;;;;-5.20;98.60;;;;;;5017590;28;20305;-79
2021/12/26 08:58:56;;;;;;;;;;;-5.10;97.20;;;;;;5017505;28;19968;-79
2021/12/26 09:01:21;;;;;;;;;;;-5.10;98.50;;;;;;5017901;28;20027;-79
2021/12/26 09:03:47;;;;;;;;;;;-5.10;97.80;;;;;;5033237;28;20400;-80
2021/12/26 09:06:12;;;;;;;;;;;-5.00;98.00;;;;;;5016702;28;19921;-81
2021/12/26 09:08:38;;;;;;;;;;;-5.10;98.30;;;;;;5031960;28;19921;-81
2021/12/26 09:11:03;;;;;;;;;;;-5.10;97.80;;;;;;5032796;28;20372;-79
2021/12/26 09:13:29;;;;;;;;;;;-5.10;98.60;;;;;;5014891;28;19921;-79
2021/12/26 09:15:55;;;;;;;;;;;-5.00;97.80;;;;;;5030896;28;20393;-79
2021/12/26 09:18:20;;;;;;;;;;;-5.10;99.90;;;;;;5015919;28;20270;-79
2021/12/26 09:20:46;;;;;;;;;;;-5.00;99.40;;;;;;5032552;28;19929;-79
2021/12/26 09:23:11;;;;;;;;;;;-5.00;99.50;;;;;;5015324;28;19925;-82
2021/12/26 09:25:36;;;;;;;;;;;-5.00;99.70;;;;;;5030300;28;20324;-82
2021/12/26 09:28:02;;;;;;;;;;;-4.90;99.90;;;;;;5015466;28;19956;-82
2021/12/26 09:30:27;;;;;;;;;;;-4.80;99.90;;;;;;5016805;28;19932;-83
2021/12/26 09:32:53;;;;;;;;;;;-4.70;98.90;;;;;;5015015;28;19929;-82
2021/12/26 09:35:18;;;;;;;;;;;-4.50;98.70;;;;;;5031737;28;19982;-80
2021/12/26 09:37:44;;;;;;;;;;;-4.40;98.90;;;;;;5015582;28;19978;-82
2021/12/26 09:40:11;;;;;;;;;;;-4.20;97.80;;;;;;5016059;28;20290;-82
2021/12/26 09:42:37;;;;;;;;;;;-4.10;96.80;;;;;;5031702;28;20428;-82
2021/12/26 09:45:04;;;;;;;;;;;-4.00;95.80;;;;;;5015498;28;19928;-82
2021/12/26 09:47:29;;;;;;;;;;;-4.00;95.80;;;;;;5031443;28;19921;-82
2021/12/26 09:49:55;;;;;;;;;;;-3.80;96.70;;;;;;5012858;28;19928;-82
2021/12/26 09:52:21;;;;;;;;;;;-3.70;94.20;;;;;;5013998;28;20094;-81
2021/12/26 09:54:46;;;;;;;;;;;-3.60;94.70;;;;;;5015410;28;19931;-81
2021/12/26 09:57:12;;;;;;;;;;;-3.50;93.20;;;;;;5015398;28;19925;-81
2021/12/26 09:59:38;;;;;;;;;;;-3.50;95.40;;;;;;5015308;28;19967;-82
2021/12/26 10:02:09;;;;;;;;;;;-3.30;93.70;;;;;;5014689;28;19925;-82
2021/12/26 10:04:35;;;;;;;;;;;-3.30;96.90;;;;;;5015205;28;20309;-81
2021/12/26 10:07:05;;;;;;;;;;;-3.10;94.00;;;;;;5015434;28;19932;-82
2021/12/26 10:09:32;;;;;;;;;;;-2.90;90.00;;;;;;5015268;28;19928;-81
2021/12/26 10:11:58;;;;;;;;;;;-2.90;90.30;;;;;;5014851;28;20334;-82
2021/12/26 10:14:25;;;;;;;;;;;-2.90;90.90;;;;;;5018720;28;19953;-82
2021/12/26 10:16:51;;;;;;;;;;;-2.90;93.40;;;;;;5020813;28;20281;-82
2021/12/26 10:19:16;;;;;;;;;;;-2.90;95.00;;;;;;5007743;28;19928;-82
2021/12/26 10:21:42;;;;;;;;;;;-2.90;94.20;;;;;;5007366;28;19968;-82
2021/12/26 10:24:12;;;;;;;;;;;-2.80;95.60;;;;;;5027271;28;19975;-81
2021/12/26 10:26:40;;;;;;;;;;;-2.70;94.10;;;;;;5004948;28;19964;-82
2021/12/26 10:29:08;;;;;;;;;;;-2.70;92.70;;;;;;5024007;28;19922;-81
2021/12/26 10:31:35;;;;;;;;;;;-2.70;92.10;;;;;;5008099;28;19921;-81
2021/12/26 10:34:01;;;;;;;;;;;-2.70;91.80;;;;;;5025336;28;19960;-82
2021/12/26 10:36:26;;;;;;;;;;;-2.70;91.50;;;;;;5014673;28;19967;-83
2021/12/26 10:39:09;;;;;;;;;;;-2.70;91.70;;;;;;5009121;28;19921;-81
2021/12/26 10:42:00;;;;;;;;;;;-2.70;91.50;;;;;;5002280;28;20557;-81
2021/12/26 10:44:27;;;;;;;;;;;-2.70;91.20;;;;;;5015261;28;19921;-81
2021/12/26 10:46:54;;;;;;;;;;;-2.80;92.00;;;;;;5008570;28;19975;-82
2021/12/26 10:49:24;;;;;;;;;;;-2.80;94.40;;;;;;5007882;28;19929;-82
2021/12/26 10:51:49;;;;;;;;;;;-2.80;95.00;;;;;;5021688;28;19929;-82
2021/12/26 10:54:16;;;;;;;;;;;-2.70;93.80;;;;;;5007238;28;20292;-83
2021/12/26 10:56:42;;;;;;;;;;;-2.60;93.30;;;;;;5016942;28;20393;-83
2021/12/26 10:59:17;;;;;;;;;;;-2.50;91.50;;;;;;5023436;28;19980;-83
2021/12/26 11:01:43;;;;;;;;;;;-2.50;91.50;;;;;;5005333;28;19921;-83
2021/12/26 11:04:10;;;;;;;;;;;-2.50;93.30;;;;;;5030050;28;19929;-84
2021/12/26 11:06:55;;;;;;;;;;;-2.50;93.50;;;;;;5010608;28;19921;-80
2021/12/26 11:09:20;;;;;;;;;;;-2.40;93.50;;;;;;5015983;28;19975;-81
2021/12/26 11:11:59;;;;;;;;;;;-2.40;94.10;;;;;;5028433;28;19980;-79
2021/12/26 11:14:25;;;;;;;;;;;-2.30;93.50;;;;;;5013143;28;19956;-79
2021/12/26 11:16:50;;;;;;;;;;;-2.30;93.80;;;;;;5025494;28;20298;-78
2021/12/26 11:19:16;;;;;;;;;;;-2.20;93.00;;;;;;5031482;28;19921;-79
2021/12/26 11:21:42;;;;;;;;;;;-2.20;93.30;;;;;;5011908;28;20305;-79
2021/12/26 11:24:07;;;;;;;;;;;-2.00;92.50;;;;;;5028854;28;19921;-79
2021/12/26 11:26:33;;;;;;;;;;;-1.70;94.50;;;;;;5027979;28;19943;-80
2021/12/26 11:28:58;;;;;;;;;;;-1.40;93.10;;;;;;5013232;28;19941;-79
2021/12/26 11:31:25;;;;;;;;;;;-1.10;90.60;;;;;;5031377;28;19921;-79
2021/12/26 11:33:55;;;;;;;;;;;-0.90;90.80;;;;;;5026241;28;19925;-79
2021/12/26 11:36:21;;;;;;;;;;;-0.50;92.50;;;;;;5015426;28;19921;-79
2021/12/26 11:38:47;;;;;;;;;;;0.00;85.40;;;;;;5008184;28;19975;-81
2021/12/26 11:41:20;;;;;;;;;;;0.30;81.40;;;;;;5001018;28;19925;-80
2021/12/26 11:43:45;;;;;;;;;;;1.00;84.90;;;;;;5017183;28;20309;-80
2021/12/26 11:46:20;;;;;;;;;;;1.70;75.20;;;;;;5009772;28;19936;-80
2021/12/26 11:49:26;;;;;;;;;;;2.00;74.40;;;;;;5026669;28;20007;-80
2021/12/26 11:51:59;;;;;;;;;;;2.20;72.90;;;;;;5006440;28;19979;-80
2021/12/26 11:54:43;;;;;;;;;;;2.20;71.90;;;;;;5014999;28;19928;-80
2021/12/26 11:57:13;;;;;;;;;;;2.30;72.10;;;;;;5020906;28;19933;-79
2021/12/26 11:59:57;;;;;;;;;;;2.50;70.10;;;;;;5029109;28;19925;-80
2021/12/26 12:02:52;;;;;;;;;;;2.40;71.10;;;;;;5033291;28;19921;-79
2021/12/26 12:05:22;;;;;;;;;;;2.50;70.10;;;;;;5021483;28;20401;-79
2021/12/26 12:07:51;;;;;;;;;;;2.70;70.80;;;;;;5006969;28;19922;-82
2021/12/26 12:10:29;;;;;;;;;;;3.30;71.60;;;;;;5014033;28;19983;-81
2021/12/26 12:12:54;;;;;;;;;;;3.40;67.30;;;;;;5007375;28;19971;-80
2021/12/26 12:15:39;;;;;;;;;;;3.20;67.80;;;;;;5007263;28;19925;-81
2021/12/26 12:18:09;;;;;;;;;;;3.10;68.60;;;;;;5022204;28;19929;-80
2021/12/26 12:20:34;;;;;;;;;;;3.10;68.70;;;;;;5009829;28;19930;-80
2021/12/26 12:23:03;;;;;;;;;;;3.10;68.30;;;;;;5004135;28;19921;-80
2021/12/26 12:25:49;;;;;;;;;;;3.10;68.60;;;;;;5008920;28;19979;-80
2021/12/26 12:28:14;;;;;;;;;;;3.00;68.60;;;;;;5022919;28;19944;-80
2021/12/26 12:30:44;;;;;;;;;;;2.90;68.90;;;;;;5002108;28;19925;-81
2021/12/26 12:33:16;;;;;;;;;;;3.00;69.70;;;;;;5005300;28;19940;-80
2021/12/26 12:35:48;;;;;;;;;;;3.20;69.40;;;;;;5007402;28;20208;-81
2021/12/26 12:38:20;;;;;;;;;;;3.20;69.40;;;;;;5003858;28;19925;-80
2021/12/26 12:40:46;;;;;;;;;;;3.20;68.80;;;;;;5014475;28;19952;-81
2021/12/26 12:43:13;;;;;;;;;;;2.70;69.60;;;;;;5015176;28;20404;-80
2021/12/26 12:45:54;;;;;;;;;;;2.60;72.30;;;;;;5008577;28;19952;-81
2021/12/26 12:48:39;;;;;;;;;;;2.70;72.20;;;;;;5004031;28;19921;-82
2021/12/26 12:51:13;;;;;;;;;;;2.90;71.20;;;;;;5023931;28;19937;-81
2021/12/26 12:53:39;;;;;;;;;;;2.60;71.40;;;;;;5024602;28;19940;-81
2021/12/26 12:56:05;;;;;;;;;;;2.20;71.00;;;;;;5002808;28;19921;-81
2021/12/26 12:58:32;;;;;;;;;;;1.80;74.30;;;;;;5023945;28;19925;-81
2021/12/26 13:00:58;;;;;;;;;;;1.80;74.80;;;;;;5029849;28;19975;-81
2021/12/26 13:03:24;;;;;;;;;;;1.70;75.40;;;;;;5005960;28;20293;-80
2021/12/26 13:05:50;;;;;;;;;;;1.50;75.50;;;;;;5014603;28;19941;-80
2021/12/26 13:08:20;;;;;;;;;;;1.00;77.60;;;;;;5011591;28;19921;-80
2021/12/26 13:10:54;;;;;;;;;;;0.70;80.10;;;;;;5014493;28;19921;-80
2021/12/26 13:13:21;;;;;;;;;;;0.40;84.30;;;;;;5014829;28;19927;-79
2021/12/26 13:16:00;;;;;;;;;;;0.20;87.70;;;;;;5024438;28;19975;-79
2021/12/26 13:18:29;;;;;;;;;;;0.10;88.00;;;;;;5024647;28;19975;-79
2021/12/26 13:20:57;;;;;;;;;;;0.00;90.00;;;;;;5008048;28;19925;-79
2021/12/26 13:23:23;;;;;;;;;;;-0.20;93.30;;;;;;5020335;28;19921;-79
2021/12/26 13:25:51;;;;;;;;;;;-0.20;95.80;;;;;;5007596;28;19944;-80
2021/12/26 13:28:16;;;;;;;;;;;-0.20;94.50;;;;;;5012926;28;19975;-79
2021/12/26 13:30:42;;;;;;;;;;;-0.20;95.30;;;;;;5003174;28;19921;-80
2021/12/26 13:33:22;;;;;;;;;;;-0.20;94.70;;;;;;5011359;28;19921;-80
2021/12/26 13:35:48;;;;;;;;;;;-0.10;93.00;;;;;;5023507;28;20385;-80
2021/12/26 13:38:14;;;;;;;;;;;-0.20;93.60;;;;;;5009971;28;19968;-80
2021/12/26 13:40:41;;;;;;;;;;;-0.20;95.80;;;;;;5022751;28;19948;-79
2021/12/26 13:43:07;;;;;;;;;;;-0.20;98.00;;;;;;5005910;28;19928;-80
2021/12/26 13:45:52;;;;;;;;;;;-0.20;96.70;;;;;;5027415;28;19926;-80
2021/12/26 13:48:25;;;;;;;;;;;-0.10;93.20;;;;;;5004853;28;20348;-80
2021/12/26 13:50:50;;;;;;;;;;;-0.20;94.40;;;;;;5008691;28;20012;-80
2021/12/26 13:53:16;;;;;;;;;;;-0.20;93.70;;;;;;5030506;28;20032;-79
2021/12/26 13:55:41;;;;;;;;;;;-0.30;94.20;;;;;;5013797;28;19932;-80
2021/12/26 13:58:11;;;;;;;;;;;-0.50;96.90;;;;;;5003964;28;19944;-80
2021/12/26 14:00:50;;;;;;;;;;;-0.50;97.70;;;;;;5011313;28;19929;-80
2021/12/26 14:03:16;;;;;;;;;;;-0.50;98.10;;;;;;5006567;28;20305;-80
2021/12/26 14:05:41;;;;;;;;;;;-0.50;97.90;;;;;;5029970;28;19932;-79
2021/12/26 14:08:18;;;;;;;;;;;-0.50;98.00;;;;;;5021524;28;19921;-79
2021/12/26 14:10:43;;;;;;;;;;;-0.60;99.10;;;;;;5011302;28;20405;-79
2021/12/26 14:13:11;;;;;;;;;;;-0.60;99.90;;;;;;5011309;28;19922;-82
2021/12/26 14:15:44;;;;;;;;;;;-0.60;99.90;;;;;;5001102;28;20408;-82
2021/12/26 14:18:12;;;;;;;;;;;-0.70;99.90;;;;;;5008107;28;20378;-80
2021/12/26 14:20:55;;;;;;;;;;;-0.70;99.90;;;;;;5012902;28;19925;-81
2021/12/26 14:23:20;;;;;;;;;;;-0.70;99.90;;;;;;5027755;28;19921;-82
2021/12/26 14:25:46;;;;;;;;;;;-0.70;99.90;;;;;;5013316;28;20393;-83
2021/12/26 14:28:13;;;;;;;;;;;-0.70;99.90;;;;;;5013192;28;19975;-83